Archival Weather

Aeroparque Jorge Newbery

Buenos Aires, Argentina (SABE)

Report from: Sunday, March 19, 2023 10:00 PM -03
Current time: Wednesday, May 29, 2024 4:51 AM -03

Current weather – Weather history – Daily summaries
Weather forecast

Temperature26.0°C (78.8°F)
Dew point22.0°C (71.6°F)
Winds 7 kts (3.6 m/s, 8.1 mph) Southeast (130°)
Visibility6.2 mi. (10 km)
Clouds Few clouds 2,200 ft. (671 m)
Ceiling: Broken clouds 7,000 ft. (2,134 m)
Altimeter29.85 in.Hg (1011 mB)
Relative humidity79 %
Density altitude1,703 ft. (519 m)
Remarks Corrected report
No significant changes expected in the next two hours
Flight conditions Visual Meteorological Conditions
Raw dataCOR SABE 200100Z 13007KT 9999 FEW022 BKN070 26/22 Q1011 NOSIG RMK PP000
An error has occurred. This application may no longer respond until reloaded. Reload 🗙